Time;durP1;ratioP1;P1;durP2;ratioP2;P2;SDS_P1;SDS_P2;PMS_P1;PMS_P2;Temp;Humidity;BMP_temperature;BMP_pressure;BME280_temperature;BME280_humidity;BME280_pressure;Samples;Min_cycle;Max_cycle;Signal;HPM_P1;HPM_P2
2023/01/02 00:00:29;;;;;;;47.22;11.38;;;29.10;83.50;;;;;;5125200;28;20065;-55
2023/01/02 00:02:56;;;;;;;47.05;11.45;;;29.10;83.30;;;;;;5125336;28;20023;-57
2023/01/02 00:05:23;;;;;;;50.97;13.48;;;29.10;83.40;;;;;;5125019;28;20051;-57
2023/01/02 00:07:49;;;;;;;44.35;13.23;;;29.10;83.50;;;;;;5124557;28;20018;-56
2023/01/02 00:10:16;;;;;;;52.58;13.80;;;29.10;83.60;;;;;;5124792;28;20038;-56
2023/01/02 00:12:43;;;;;;;40.60;13.68;;;29.00;83.60;;;;;;5125300;28;20049;-56
2023/01/02 00:15:10;;;;;;;40.05;13.43;;;29.00;83.70;;;;;;5124903;28;20086;-55
2023/01/02 00:17:36;;;;;;;33.05;12.07;;;29.00;83.80;;;;;;5124366;28;20024;-56
2023/01/02 00:20:03;;;;;;;45.83;12.88;;;29.00;83.80;;;;;;5124618;28;20323;-56
2023/01/02 00:22:30;;;;;;;45.83;13.23;;;28.90;83.80;;;;;;5125124;28;20320;-56
2023/01/02 00:24:56;;;;;;;40.22;13.23;;;28.90;83.90;;;;;;5125499;28;20256;-57
2023/01/02 00:27:23;;;;;;;39.53;12.63;;;28.90;84.00;;;;;;5124708;28;20343;-58
2023/01/02 00:29:49;;;;;;;50.85;16.02;;;28.90;84.10;;;;;;5125043;28;20099;-55
2023/01/02 00:32:16;;;;;;;38.88;16.90;;;28.90;84.20;;;;;;5124760;28;20023;-55
2023/01/02 00:34:42;;;;;;;40.92;17.17;;;28.90;84.30;;;;;;5125251;28;20035;-58
2023/01/02 00:37:09;;;;;;;46.42;14.98;;;28.90;84.40;;;;;;5124776;28;20130;-57
2023/01/02 00:39:36;;;;;;;85.03;21.25;;;28.80;84.20;;;;;;5124717;28;20032;-56
2023/01/02 00:42:02;;;;;;;85.93;17.88;;;28.80;84.30;;;;;;5124470;28;20054;-56
2023/01/02 00:44:30;;;;;;;76.43;16.65;;;28.80;84.40;;;;;;5125062;28;20265;-57
2023/01/02 00:46:56;;;;;;;110.57;16.48;;;28.80;84.50;;;;;;5124512;28;20019;-57
2023/01/02 00:49:23;;;;;;;65.82;12.43;;;28.70;84.50;;;;;;5125050;28;20066;-56
2023/01/02 00:51:50;;;;;;;71.95;13.38;;;28.70;84.60;;;;;;5124274;28;20066;-56
2023/01/02 00:54:16;;;;;;;56.97;10.93;;;28.70;84.60;;;;;;5124702;28;20289;-56
2023/01/02 00:56:43;;;;;;;57.75;11.00;;;28.70;84.70;;;;;;5124366;28;20023;-55
2023/01/02 00:59:09;;;;;;;41.83;10.05;;;28.70;84.70;;;;;;5124855;28;20038;-58
2023/01/02 01:01:36;;;;;;;39.75;10.15;;;28.70;84.50;;;;;;5124170;28;20023;-56
2023/01/02 01:04:03;;;;;;;35.20;9.93;;;28.70;84.50;;;;;;5124484;28;20023;-56
2023/01/02 01:06:29;;;;;;;33.25;8.90;;;28.70;84.50;;;;;;5106306;28;20028;-56
2023/01/02 01:08:56;;;;;;;34.85;9.05;;;28.70;84.50;;;;;;5124523;28;20051;-56
2023/01/02 01:11:22;;;;;;;26.65;7.90;;;28.70;84.50;;;;;;5124708;28;20032;-56
2023/01/02 01:13:50;;;;;;;56.97;8.55;;;28.70;84.50;;;;;;5121392;28;20028;-54
2023/01/02 01:16:18;;;;;;;26.83;7.35;;;28.50;85.00;;;;;;5130686;27;20028;-56
2023/01/02 01:18:45;;;;;;;24.08;7.35;;;28.20;85.70;;;;;;5139134;27;20031;-60
2023/01/02 01:21:16;;;;;;;18.80;6.93;;;28.00;86.50;;;;;;5148207;27;20475;-59
2023/01/02 01:23:43;;;;;;;23.15;7.25;;;28.10;86.40;;;;;;5148538;27;20249;-60
2023/01/02 01:26:12;;;;;;;17.48;6.47;;;28.20;86.20;;;;;;5148494;27;20027;-56
2023/01/02 01:28:39;;;;;;;21.75;7.30;;;28.30;86.40;;;;;;5148668;27;20034;-54
2023/01/02 01:31:11;;;;;;;18.70;6.55;;;28.30;85.70;;;;;;5147997;27;20245;-56
2023/01/02 01:33:38;;;;;;;18.20;6.90;;;28.30;85.60;;;;;;5147496;27;20216;-54
2023/01/02 01:36:08;;;;;;;28.90;6.90;;;28.30;85.50;;;;;;5118295;27;20099;-55
2023/01/02 01:38:36;;;;;;;34.80;6.38;;;28.30;85.40;;;;;;5124953;27;20031;-58
2023/01/02 01:41:04;;;;;;;29.00;6.20;;;28.00;86.10;;;;;;5133139;27;20027;-57
2023/01/02 01:43:39;;;;;;;19.05;6.22;;;27.80;86.90;;;;;;5127220;28;20319;-56
2023/01/02 01:46:16;;;;;;;12.80;5.55;;;27.60;87.60;;;;;;5142542;27;20054;-57
2023/01/02 01:48:43;;;;;;;17.63;6.70;;;27.50;88.20;;;;;;5125144;27;20028;-55
2023/01/02 01:51:10;;;;;;;16.92;6.63;;;27.40;88.60;;;;;;5130164;27;20350;-61
2023/01/02 01:53:38;;;;;;;27.83;6.57;;;27.30;89.10;;;;;;5130371;27;20055;-54
2023/01/02 01:56:06;;;;;;;36.33;6.50;;;27.20;89.30;;;;;;5127225;28;20260;-55
2023/01/02 01:58:38;;;;;;;22.15;6.68;;;27.10;89.70;;;;;;5119684;28;20272;-58
2023/01/02 02:01:05;;;;;;;11.05;5.43;;;27.10;89.80;;;;;;5106623;28;20096;-54
2023/01/02 02:03:33;;;;;;;20.23;6.47;;;27.00;90.00;;;;;;5113091;27;20227;-52
2023/01/02 02:06:02;;;;;;;33.65;6.13;;;27.00;90.00;;;;;;5101354;28;20020;-55
2023/01/02 02:08:47;;;;;;;30.05;6.85;;;26.90;90.10;;;;;;5115808;28;20055;-54
2023/01/02 02:11:14;;;;;;;27.33;6.22;;;26.80;90.20;;;;;;5118686;27;20024;-57
2023/01/02 02:13:41;;;;;;;34.22;6.20;;;26.80;90.40;;;;;;5108216;28;20036;-54
2023/01/02 02:16:24;;;;;;;22.08;5.85;;;26.70;90.40;;;;;;5126828;28;20020;-54
2023/01/02 02:19:16;;;;;;;15.23;5.40;;;26.70;90.50;;;;;;5127145;28;20311;-57
2023/01/02 02:21:55;;;;;;;17.15;5.65;;;26.70;90.60;;;;;;5127028;28;20385;-59
2023/01/02 02:24:35;;;;;;;12.98;5.80;;;26.60;90.60;;;;;;5120240;28;20024;-54
2023/01/02 02:27:32;;;;;;;14.75;5.40;;;26.60;90.60;;;;;;5111296;28;20031;-57
2023/01/02 02:30:01;;;;;;;14.13;5.40;;;26.60;90.70;;;;;;5070265;28;20103;-54
2023/01/02 02:32:55;;;;;;;14.68;7.18;;;26.50;90.70;;;;;;5120385;28;20342;-54
2023/01/02 02:35:36;;;;;;;9.20;5.65;;;26.50;90.70;;;;;;5104993;28;20039;-55
2023/01/02 02:38:10;;;;;;;18.73;6.63;;;26.50;90.70;;;;;;5123328;27;20031;-56
2023/01/02 02:40:55;;;;;;;16.98;6.53;;;26.70;90.60;;;;;;5134964;27;20031;-55
2023/01/02 02:43:47;;;;;;;14.73;6.25;;;26.90;90.30;;;;;;5126150;28;20185;-54
2023/01/02 02:46:29;;;;;;;16.20;6.32;;;27.00;90.20;;;;;;5119528;28;20371;-54
2023/01/02 02:49:07;;;;;;;22.95;6.57;;;27.20;89.90;;;;;;5117875;27;20068;-54
2023/01/02 02:52:07;;;;;;;15.32;5.90;;;27.30;89.50;;;;;;5125351;27;20031;-54
2023/01/02 02:54:50;;;;;;;14.30;6.38;;;27.40;89.10;;;;;;5123979;27;20227;-54
2023/01/02 02:57:18;;;;;;;9.57;5.43;;;27.50;88.60;;;;;;5129517;27;20019;-56
2023/01/02 02:59:46;;;;;;;11.00;5.75;;;27.50;88.30;;;;;;5126680;28;20024;-54
2023/01/02 03:02:17;;;;;;;13.40;5.50;;;27.60;88.10;;;;;;5122999;28;20051;-55
2023/01/02 03:04:48;;;;;;;7.93;5.55;;;27.60;87.80;;;;;;5117382;27;20024;-57
2023/01/02 03:07:36;;;;;;;8.60;5.85;;;27.70;87.70;;;;;;5120943;28;20034;-54
2023/01/02 03:10:15;;;;;;;12.88;5.63;;;27.70;87.60;;;;;;5119063;27;20034;-55
2023/01/02 03:13:06;;;;;;;9.05;5.38;;;27.70;87.50;;;;;;5116120;28;20038;-53
2023/01/02 03:15:54;;;;;;;10.38;5.22;;;27.70;87.40;;;;;;5132138;27;20064;-53
2023/01/02 03:18:45;;;;;;;8.15;5.18;;;27.70;87.30;;;;;;5145290;27;20076;-55
2023/01/02 03:21:43;;;;;;;10.32;5.63;;;27.80;87.10;;;;;;5122423;28;20012;-54
2023/01/02 03:24:13;;;;;;;7.53;5.00;;;27.80;87.10;;;;;;5104221;28;20031;-54
2023/01/02 03:26:45;;;;;;;8.10;5.32;;;27.80;86.90;;;;;;5124973;28;20007;-51
2023/01/02 03:29:38;;;;;;;7.00;5.22;;;27.80;86.80;;;;;;5125723;28;20031;-52
2023/01/02 03:32:11;;;;;;;10.40;5.72;;;27.80;86.80;;;;;;5126412;27;20027;-54
2023/01/02 03:34:41;;;;;;;10.02;5.20;;;27.80;86.70;;;;;;5136922;27;20073;-55
2023/01/02 03:37:12;;;;;;;6.22;5.15;;;27.80;86.50;;;;;;5122132;28;20031;-55
2023/01/02 03:39:45;;;;;;;10.65;5.60;;;27.80;86.60;;;;;;5115298;28;20066;-54
2023/01/02 03:42:20;;;;;;;10.70;5.22;;;27.80;86.50;;;;;;5114164;28;20080;-55
2023/01/02 03:45:06;;;;;;;8.45;5.78;;;27.80;86.30;;;;;;5144877;27;20031;-55
2023/01/02 03:47:42;;;;;;;6.50;5.65;;;27.80;86.20;;;;;;5145829;27;20046;-55
2023/01/02 03:51:00;;;;;;;8.52;5.38;;;27.80;86.20;;;;;;5131766;27;20383;-56
2023/01/02 03:53:29;;;;;;;9.90;5.18;;;27.80;86.10;;;;;;5108660;27;20047;-54
2023/01/02 03:56:01;;;;;;;7.07;5.00;;;27.80;86.10;;;;;;5124903;28;20324;-54
2023/01/02 03:58:40;;;;;;;;;;;27.80;86.10;;;;;;5125129;28;20027;-54
2023/01/02 04:01:14;;;;;;;7.05;5.03;;;27.80;86.10;;;;;;5123730;28;19904;-54
2023/01/02 04:03:49;;;;;;;7.47;5.13;;;27.80;86.20;;;;;;5123406;28;20084;-53
2023/01/02 04:06:22;;;;;;;8.85;6.22;;;27.80;86.30;;;;;;5121034;28;20034;-53
2023/01/02 04:09:20;;;;;;;9.40;7.38;;;27.80;86.20;;;;;;5124183;27;20031;-56
2023/01/02 04:11:52;;;;;;;11.60;7.15;;;27.80;86.20;;;;;;5116756;28;20027;-54
2023/01/02 04:14:43;;;;;;;8.23;7.03;;;27.80;86.30;;;;;;5128008;27;20027;-54
2023/01/02 04:17:11;;;;;;;7.65;5.75;;;27.80;86.20;;;;;;5126141;27;20034;-54
2023/01/02 04:19:43;;;;;;;6.57;5.72;;;27.80;86.10;;;;;;5144969;27;20027;-57
2023/01/02 04:22:16;;;;;;;7.10;5.78;;;27.80;86.10;;;;;;5145167;27;20031;-56
2023/01/02 04:24:51;;;;;;;8.43;5.72;;;27.80;86.10;;;;;;5138236;27;20031;-54
2023/01/02 04:27:26;;;;;;;6.22;5.63;;;27.80;86.00;;;;;;5133478;27;20331;-55
2023/01/02 04:29:53;;;;;;;9.20;5.50;;;27.80;86.00;;;;;;5131384;28;20258;-56
2023/01/02 04:32:26;;;;;;;6.15;5.50;;;27.80;85.90;;;;;;5122524;28;21120;-57
2023/01/02 04:34:54;;;;;;;10.07;5.53;;;27.80;86.00;;;;;;5121989;28;20094;-57
2023/01/02 04:37:32;;;;;;;7.03;5.50;;;27.80;85.90;;;;;;5122771;28;20095;-56
2023/01/02 04:40:07;;;;;;;9.00;5.22;;;27.80;86.00;;;;;;5122054;28;20035;-55
2023/01/02 04:42:33;;;;;;;8.25;5.32;;;27.80;85.90;;;;;;5114461;28;20252;-55
2023/01/02 04:45:00;;;;;;;8.95;5.55;;;27.80;85.90;;;;;;5115294;28;20025;-53
2023/01/02 04:47:26;;;;;;;7.93;5.22;;;27.80;85.80;;;;;;5112223;28;20024;-55
2023/01/02 04:49:53;;;;;;;8.57;5.57;;;27.80;85.80;;;;;;5104651;28;20047;-55
2023/01/02 04:52:21;;;;;;;6.95;5.18;;;27.80;85.80;;;;;;5107949;28;20051;-55
2023/01/02 04:54:47;;;;;;;7.85;5.00;;;27.80;85.70;;;;;;5108341;28;20051;-56
2023/01/02 04:57:15;;;;;;;7.75;4.80;;;27.80;85.60;;;;;;5107829;28;20330;-58
2023/01/02 04:59:41;;;;;;;7.07;5.50;;;27.80;85.50;;;;;;5108370;28;20028;-55
2023/01/02 05:02:08;;;;;;;6.07;5.10;;;27.80;85.50;;;;;;5112972;27;20020;-54
2023/01/02 05:04:35;;;;;;;8.65;5.10;;;27.80;85.40;;;;;;5149134;27;20019;-56
2023/01/02 05:07:02;;;;;;;6.25;4.78;;;27.80;85.40;;;;;;5148938;27;20023;-55
2023/01/02 05:09:29;;;;;;;7.10;5.05;;;27.80;85.30;;;;;;5132602;27;20045;-58
2023/01/02 05:11:55;;;;;;;5.88;4.90;;;27.80;85.30;;;;;;5127952;28;20032;-54
2023/01/02 05:14:22;;;;;;;9.43;5.55;;;27.80;85.40;;;;;;5128258;28;20236;-58
2023/01/02 05:16:49;;;;;;;6.07;5.35;;;27.70;85.30;;;;;;5128114;28;20030;-55
2023/01/02 05:19:15;;;;;;;8.40;5.25;;;27.70;85.30;;;;;;5127136;28;20046;-51
2023/01/02 05:24:27;;;;;;;11.00;5.22;;;27.70;85.30;;;;;;5128273;28;20040;-59
2023/01/02 05:26:54;;;;;;;10.30;4.97;;;27.70;85.30;;;;;;5127684;28;20035;-54
2023/01/02 05:29:21;;;;;;;9.90;4.38;;;27.70;85.30;;;;;;5127654;28;20072;-56
2023/01/02 05:31:47;;;;;;;10.10;5.20;;;27.70;85.30;;;;;;5127607;28;20020;-58
2023/01/02 05:34:15;;;;;;;6.25;4.60;;;27.60;85.30;;;;;;5127881;28;20058;-56
2023/01/02 05:36:42;;;;;;;8.10;4.65;;;27.60;85.40;;;;;;5127669;28;20079;-56
2023/01/02 05:39:13;;;;;;;5.93;5.32;;;27.60;85.60;;;;;;5127833;28;20035;-56
2023/01/02 05:41:41;;;;;;;7.13;5.22;;;27.60;85.60;;;;;;5127436;28;20396;-55
2023/01/02 05:44:10;;;;;;;8.65;4.80;;;27.60;85.60;;;;;;5127724;28;20023;-56
2023/01/02 05:46:38;;;;;;;7.95;4.97;;;27.60;85.50;;;;;;5127293;28;20023;-54
2023/01/02 05:49:09;;;;;;;9.18;4.70;;;27.60;85.40;;;;;;5127563;28;20198;-56
2023/01/02 05:51:36;;;;;;;12.30;4.88;;;27.60;85.40;;;;;;5127109;28;20064;-56
2023/01/02 05:54:03;;;;;;;7.15;4.68;;;27.60;85.40;;;;;;5127445;28;20039;-55
2023/01/02 05:56:30;;;;;;;10.10;4.95;;;27.60;85.30;;;;;;5126714;28;20339;-54
2023/01/02 05:58:57;;;;;;;5.60;4.95;;;27.60;85.30;;;;;;5126746;28;20287;-55
2023/01/02 06:01:29;;;;;;;8.40;4.50;;;27.60;85.10;;;;;;5126824;28;20019;-55
2023/01/02 06:03:57;;;;;;;5.82;5.05;;;27.60;85.10;;;;;;5127356;28;20032;-57
2023/01/02 06:06:26;;;;;;;7.90;5.05;;;27.60;85.10;;;;;;5126061;28;20193;-54
2023/01/02 06:08:53;;;;;;;13.52;5.00;;;27.60;85.00;;;;;;5127087;28;20031;-54
2023/01/02 06:11:19;;;;;;;9.95;5.15;;;27.50;85.00;;;;;;5127027;28;20019;-54
2023/01/02 06:13:46;;;;;;;5.78;4.40;;;27.50;85.00;;;;;;5127047;28;20028;-54
2023/01/02 06:16:12;;;;;;;7.50;4.40;;;27.40;84.90;;;;;;5126814;28;20042;-54
2023/01/02 06:18:40;;;;;;;6.72;4.80;;;27.50;85.00;;;;;;5126906;28;20250;-54
2023/01/02 06:21:09;;;;;;;6.25;4.40;;;27.50;85.20;;;;;;5126719;28;20031;-54
2023/01/02 06:23:37;;;;;;;7.00;4.35;;;27.50;85.10;;;;;;5126839;28;20023;-54
2023/01/02 06:26:18;;;;;;;6.82;4.88;;;27.50;85.10;;;;;;5126668;28;20366;-55
2023/01/02 06:28:48;;;;;;;8.18;4.60;;;27.50;85.00;;;;;;5126741;28;20208;-53
2023/01/02 06:31:15;;;;;;;6.32;5.00;;;27.50;85.00;;;;;;5126625;28;20372;-54
2023/01/02 06:33:43;;;;;;;7.25;4.70;;;27.40;84.90;;;;;;5126765;28;20031;-56
2023/01/02 06:36:10;;;;;;;6.47;4.78;;;27.40;84.90;;;;;;5126385;28;20080;-55
2023/01/02 06:38:37;;;;;;;6.25;4.60;;;27.40;84.90;;;;;;5126727;28;20027;-54
2023/01/02 06:41:06;;;;;;;6.35;4.57;;;27.40;84.90;;;;;;5126471;28;20331;-54
2023/01/02 06:43:34;;;;;;;6.03;4.75;;;27.40;84.90;;;;;;5126400;28;20100;-54
2023/01/02 06:46:04;;;;;;;7.57;4.70;;;27.30;84.80;;;;;;5126229;28;20048;-54
2023/01/02 06:48:32;;;;;;;5.82;4.25;;;27.30;84.70;;;;;;5126477;28;20177;-55
2023/01/02 06:50:58;;;;;;;6.47;4.38;;;27.30;84.70;;;;;;5126040;28;20098;-54
2023/01/02 06:53:26;;;;;;;8.60;4.70;;;27.30;84.60;;;;;;5126199;28;20328;-57
2023/01/02 06:55:54;;;;;;;5.20;4.45;;;27.30;84.50;;;;;;5126080;28;20026;-54
2023/01/02 06:58:22;;;;;;;5.40;4.25;;;27.30;84.40;;;;;;5125795;28;20068;-54
2023/01/02 07:00:49;;;;;;;5.82;4.50;;;27.30;84.40;;;;;;5126031;28;20016;-58
2023/01/02 07:03:16;;;;;;;6.25;4.60;;;27.30;84.40;;;;;;5126047;28;20303;-56
2023/01/02 07:05:44;;;;;;;6.78;4.55;;;27.30;84.40;;;;;;5125795;28;20065;-57
2023/01/02 07:08:11;;;;;;;7.22;4.20;;;27.30;84.40;;;;;;5125843;28;20024;-57
2023/01/02 07:10:37;;;;;;;8.30;4.80;;;27.30;84.30;;;;;;5125899;28;20087;-55
2023/01/02 07:13:04;;;;;;;5.32;4.30;;;27.30;84.50;;;;;;5123389;28;20027;-57
2023/01/02 07:15:32;;;;;;;7.78;4.93;;;27.30;84.70;;;;;;5125085;28;20012;-54
2023/01/02 07:17:58;;;;;;;5.88;4.50;;;27.30;85.00;;;;;;5125478;28;20054;-55
2023/01/02 07:20:25;;;;;;;5.70;4.43;;;27.30;85.30;;;;;;5125579;28;20024;-55
2023/01/02 07:22:53;;;;;;;7.90;5.15;;;27.30;85.50;;;;;;5125831;28;20019;-55
2023/01/02 07:25:20;;;;;;;6.72;4.75;;;27.30;85.70;;;;;;5125430;28;20031;-55
2023/01/02 07:27:47;;;;;;;5.75;5.15;;;27.30;85.90;;;;;;5125330;28;20046;-55
2023/01/02 07:30:14;;;;;;;4.88;4.38;;;27.30;86.10;;;;;;5125460;28;20031;-54
2023/01/02 07:32:40;;;;;;;7.18;4.80;;;27.30;86.20;;;;;;5125385;28;20026;-55
2023/01/02 07:35:07;;;;;;;8.52;4.78;;;27.30;86.30;;;;;;5125096;28;20031;-54
2023/01/02 07:37:34;;;;;;;7.13;4.72;;;27.30;86.40;;;;;;5125423;28;20021;-54
2023/01/02 07:40:00;;;;;;;5.07;4.57;;;27.30;86.40;;;;;;5125150;28;20404;-54
2023/01/02 07:42:27;;;;;;;7.10;4.65;;;27.30;86.50;;;;;;5125159;28;20100;-53
2023/01/02 07:44:53;;;;;;;8.30;4.60;;;27.30;86.50;;;;;;5125090;28;20090;-53
2023/01/02 07:47:20;;;;;;;7.35;4.70;;;27.30;86.50;;;;;;5125282;28;20042;-55
2023/01/02 07:49:47;;;;;;;5.18;4.45;;;27.30;86.50;;;;;;5125401;28;20080;-50
2023/01/02 07:52:13;;;;;;;6.82;4.90;;;27.30;86.50;;;;;;5124948;28;20286;-55
2023/01/02 07:54:40;;;;;;;7.38;5.00;;;27.30;86.40;;;;;;5125344;28;20200;-54
2023/01/02 07:57:06;;;;;;;5.72;4.40;;;27.30;86.40;;;;;;5124869;28;20027;-54
2023/01/02 07:59:33;;;;;;;8.05;4.90;;;27.30;86.40;;;;;;5125134;28;20042;-54
2023/01/02 08:01:59;;;;;;;7.35;4.60;;;27.30;86.20;;;;;;5124896;28;20086;-54
2023/01/02 08:04:26;;;;;;;5.90;4.53;;;27.20;86.30;;;;;;5125338;28;20036;-55
2023/01/02 08:06:52;;;;;;;8.15;4.80;;;27.30;86.20;;;;;;5124601;28;20016;-55
2023/01/02 08:09:19;;;;;;;9.50;4.93;;;27.30;86.30;;;;;;5125127;28;20031;-55
2023/01/02 08:11:45;;;;;;;6.80;5.30;;;27.30;86.10;;;;;;5124728;28;20039;-55
2023/01/02 08:14:12;;;;;;;6.63;4.95;;;27.30;86.00;;;;;;5124951;28;20088;-55
2023/01/02 08:16:38;;;;;;;7.53;4.18;;;27.30;85.90;;;;;;5124681;28;20094;-54
2023/01/02 08:19:05;;;;;;;6.22;4.70;;;27.20;85.90;;;;;;5124872;28;20019;-56
2023/01/02 08:21:31;;;;;;;8.02;4.75;;;27.20;85.90;;;;;;5124689;28;20023;-55
2023/01/02 08:23:58;;;;;;;5.80;4.65;;;27.30;85.90;;;;;;5124710;28;20055;-54
2023/01/02 08:26:24;;;;;;;4.60;4.18;;;27.20;85.90;;;;;;5124539;28;20038;-55
2023/01/02 08:28:51;;;;;;;7.90;4.35;;;27.30;86.00;;;;;;5124615;28;20036;-55
2023/01/02 08:31:20;;;;;;;6.50;4.38;;;27.20;85.90;;;;;;5124619;28;20242;-54
2023/01/02 08:33:47;;;;;;;4.70;3.88;;;27.30;86.10;;;;;;5124704;28;20038;-57
2023/01/02 08:36:13;;;;;;;7.45;4.53;;;27.30;86.10;;;;;;5124264;28;20023;-55
2023/01/02 08:38:40;;;;;;;6.90;4.10;;;27.30;86.20;;;;;;5124430;28;20023;-56
2023/01/02 08:41:07;;;;;;;5.50;4.07;;;27.30;86.20;;;;;;5124396;28;20051;-55
2023/01/02 08:43:35;;;;;;;7.03;4.05;;;27.30;86.40;;;;;;5124367;28;20212;-57
2023/01/02 08:46:04;;;;;;;4.47;3.80;;;27.30;86.40;;;;;;5124291;28;20054;-54
2023/01/02 08:48:30;;;;;;;6.53;3.95;;;27.30;86.50;;;;;;5124534;28;20036;-55
2023/01/02 08:50:57;;;;;;;6.50;3.80;;;27.30;86.50;;;;;;5124099;28;20016;-56
2023/01/02 08:53:24;;;;;;;6.38;3.72;;;27.20;86.50;;;;;;5124219;28;20131;-55
2023/01/02 08:55:50;;;;;;;6.97;3.85;;;27.20;86.70;;;;;;5124349;28;20328;-56
2023/01/02 08:58:17;;;;;;;5.40;3.97;;;27.20;86.70;;;;;;5124019;28;21899;-55
2023/01/02 09:00:43;;;;;;;5.90;4.35;;;27.20;86.80;;;;;;5124511;28;20331;-56
2023/01/02 09:03:10;;;;;;;4.35;3.88;;;27.20;86.80;;;;;;5119954;28;20057;-55
2023/01/02 09:05:36;;;;;;;5.57;3.53;;;27.20;87.00;;;;;;5114950;28;20315;-55
2023/01/02 09:08:03;;;;;;;7.18;4.18;;;27.20;87.10;;;;;;5124203;28;20024;-57
2023/01/02 09:10:29;;;;;;;7.35;4.22;;;27.10;87.10;;;;;;5124134;28;20027;-56
2023/01/02 09:12:57;;;;;;;9.52;4.18;;;27.10;87.30;;;;;;5124061;28;20059;-50
2023/01/02 09:15:24;;;;;;;6.43;4.25;;;27.10;87.40;;;;;;5123470;28;20051;-55
2023/01/02 09:17:50;;;;;;;7.72;3.60;;;27.10;87.50;;;;;;5115589;28;20024;-55
2023/01/02 09:20:17;;;;;;;4.60;3.95;;;27.10;87.60;;;;;;5108245;28;20324;-55
2023/01/02 09:22:43;;;;;;;6.82;3.60;;;27.00;87.50;;;;;;5110461;28;20024;-60
2023/01/02 09:25:10;;;;;;;6.25;4.13;;;27.00;87.60;;;;;;5103526;28;20032;-57
2023/01/02 09:27:36;;;;;;;4.90;3.58;;;27.00;87.60;;;;;;5103560;28;20079;-56
2023/01/02 09:30:03;;;;;;;7.90;4.28;;;27.00;87.70;;;;;;5103367;28;20077;-57
2023/01/02 09:32:30;;;;;;;8.00;4.20;;;27.00;87.80;;;;;;5103599;28;20020;-57
2023/01/02 09:34:56;;;;;;;5.63;4.05;;;27.00;87.80;;;;;;5103999;28;20028;-55
2023/01/02 09:37:23;;;;;;;6.30;4.55;;;27.00;87.90;;;;;;5106078;28;20028;-55
2023/01/02 09:39:49;;;;;;;4.38;3.95;;;27.00;88.00;;;;;;5107772;28;20315;-55
2023/01/02 09:42:17;;;;;;;5.15;4.18;;;27.00;88.00;;;;;;5112238;28;20320;-54
2023/01/02 09:44:51;;;;;;;5.65;3.80;;;27.00;88.00;;;;;;5114844;28;20030;-55
2023/01/02 09:47:25;;;;;;;4.78;3.92;;;27.00;88.10;;;;;;5115349;28;20062;-54
2023/01/02 09:49:54;;;;;;;6.60;4.40;;;26.90;88.00;;;;;;5127654;28;20398;-56
2023/01/02 09:52:40;;;;;;;6.68;4.40;;;27.00;88.20;;;;;;5127236;28;20051;-55
2023/01/02 09:55:21;;;;;;;5.05;4.18;;;26.90;88.10;;;;;;5127153;28;20051;-56
2023/01/02 09:57:59;;;;;;;9.07;4.10;;;26.90;88.10;;;;;;5127151;28;20074;-56
2023/01/02 10:00:27;;;;;;;6.20;4.22;;;26.90;88.10;;;;;;5127070;28;20240;-56
2023/01/02 10:03:24;;;;;;;5.15;4.15;;;26.90;88.20;;;;;;5127235;28;20027;-58
2023/01/02 10:06:24;;;;;;;7.22;4.40;;;26.90;88.40;;;;;;5127039;28;20026;-54
2023/01/02 10:09:21;;;;;;;6.93;4.00;;;26.90;88.40;;;;;;5127142;28;20034;-56
2023/01/02 10:11:59;;;;;;;5.07;3.80;;;26.90;88.40;;;;;;5126971;28;20216;-56
2023/01/02 10:14:41;;;;;;;6.78;4.00;;;26.90;88.20;;;;;;5126910;28;20051;-56
2023/01/02 10:17:11;;;;;;;5.70;3.50;;;26.90;88.10;;;;;;5126912;28;20311;-53
2023/01/02 10:19:47;;;;;;;7.15;4.00;;;26.90;88.00;;;;;;5127208;28;20037;-57
2023/01/02 10:22:23;;;;;;;5.75;3.75;;;26.90;87.90;;;;;;5126784;28;20028;-57
2023/01/02 10:25:14;;;;;;;5.28;3.58;;;26.90;87.80;;;;;;5118445;28;20046;-56
2023/01/02 10:27:49;;;;;;;4.75;3.97;;;26.90;87.60;;;;;;5106325;28;20088;-53
2023/01/02 10:30:21;;;;;;;4.35;3.55;;;26.90;87.70;;;;;;5106213;28;20067;-57
2023/01/02 10:32:50;;;;;;;;;;;27.00;87.70;;;;;;5106632;28;20091;-54
2023/01/02 10:35:23;;;;;;;3.88;3.30;;;27.00;87.80;;;;;;5109091;28;19908;-55
2023/01/02 10:37:51;;;;;;;4.90;3.22;;;26.90;87.90;;;;;;5113984;28;20057;-57
2023/01/02 10:40:18;;;;;;;10.95;3.72;;;27.00;88.50;;;;;;5105764;28;20046;-54
2023/01/02 10:42:44;;;;;;;8.20;3.72;;;26.90;88.80;;;;;;5106184;28;20224;-56
2023/01/02 10:45:15;;;;;;;8.50;3.90;;;26.90;89.00;;;;;;5105999;28;20334;-55
2023/01/02 10:47:43;;;;;;;8.00;3.72;;;26.90;89.70;;;;;;5104615;28;20016;-58
2023/01/02 10:50:24;;;;;;;12.93;4.28;;;26.90;89.90;;;;;;5105713;28;20036;-55
2023/01/02 10:53:04;;;;;;;11.07;4.82;;;26.90;90.20;;;;;;5116640;28;20122;-56
2023/01/02 10:55:40;;;;;;;12.15;4.53;;;26.90;90.30;;;;;;5117171;28;20023;-56
2023/01/02 10:58:26;;;;;;;13.50;4.25;;;26.80;90.40;;;;;;5114407;28;20272;-55
2023/01/02 11:01:04;;;;;;;11.95;3.90;;;26.80;90.30;;;;;;5126040;28;20015;-58
2023/01/02 11:03:31;;;;;;;10.05;3.53;;;26.80;90.20;;;;;;5126018;28;20292;-56
2023/01/02 11:05:58;;;;;;;8.50;3.47;;;26.70;90.10;;;;;;5125916;28;20185;-55
2023/01/02 11:08:37;;;;;;;8.07;3.20;;;26.70;90.20;;;;;;5127656;28;20035;-51
2023/01/02 11:11:16;;;;;;;7.82;3.60;;;26.60;90.40;;;;;;5125715;28;20039;-53
2023/01/02 11:13:48;;;;;;;7.32;3.40;;;26.70;90.60;;;;;;5125998;28;20035;-53
2023/01/02 11:16:16;;;;;;;6.95;3.15;;;26.60;90.80;;;;;;5125610;28;20026;-52
2023/01/02 11:18:53;;;;;;;7.47;3.85;;;26.30;91.50;;;;;;5119082;28;20316;-53
2023/01/02 11:21:30;;;;;;;8.18;3.63;;;26.00;92.10;;;;;;5112695;28;20035;-51
2023/01/02 11:24:03;;;;;;;8.63;3.80;;;25.70;92.70;;;;;;5113863;28;20083;-55
2023/01/02 11:26:31;;;;;;;6.55;3.50;;;25.60;93.10;;;;;;5114443;28;20321;-56
2023/01/02 11:29:06;;;;;;;5.53;3.97;;;25.70;92.90;;;;;;5105176;28;20032;-54
2023/01/02 11:31:33;;;;;;;6.20;3.90;;;25.80;92.70;;;;;;5104983;28;20024;-55
2023/01/02 11:34:19;;;;;;;7.53;3.75;;;25.90;92.50;;;;;;5105154;28;20308;-56
2023/01/02 11:36:59;;;;;;;5.28;3.55;;;26.00;92.40;;;;;;5114627;28;20019;-55
2023/01/02 11:39:26;;;;;;;6.00;3.67;;;26.00;92.30;;;;;;5109048;28;20034;-55
2023/01/02 11:45:20;;;;;;;5.25;3.55;;;26.10;92.10;;;;;;5111545;28;20070;-54
2023/01/02 11:48:11;;;;;;;6.30;3.35;;;26.20;92.10;;;;;;5105819;28;20012;-56
2023/01/02 11:50:38;;;;;;;7.25;3.15;;;26.10;91.90;;;;;;5117010;28;20110;-54
2023/01/02 11:53:11;;;;;;;6.38;3.53;;;26.20;91.90;;;;;;5123183;28;20040;-53
2023/01/02 11:55:53;;;;;;;;;;;26.20;91.90;;;;;;5116282;28;20028;-54
2023/01/02 11:58:54;;;;;;;3.95;2.90;;;26.20;91.80;;;;;;5111158;28;19939;-57
2023/01/02 12:01:37;;;;;;;4.60;2.90;;;26.30;91.80;;;;;;5112877;28;20031;-54
2023/01/02 12:04:04;;;;;;;6.53;3.50;;;26.30;91.80;;;;;;5093162;28;20320;-57
2023/01/02 12:06:55;;;;;;;5.15;3.40;;;26.30;91.80;;;;;;5100350;28;20024;-56
2023/01/02 12:09:35;;;;;;;6.28;3.90;;;26.30;91.70;;;;;;5104789;28;20024;-59
2023/01/02 12:12:23;;;;;;;6.50;3.78;;;26.30;91.80;;;;;;5107422;28;20320;-57
2023/01/02 12:15:08;;;;;;;5.70;3.78;;;26.30;91.80;;;;;;5113787;28;20059;-55
2023/01/02 12:17:34;;;;;;;5.05;3.53;;;26.30;91.80;;;;;;5104246;28;20039;-57
2023/01/02 12:20:04;;;;;;;4.40;3.65;;;26.30;91.80;;;;;;5104201;28;20036;-54
2023/01/02 12:22:58;;;;;;;7.82;3.50;;;26.30;91.70;;;;;;5104115;28;20091;-54
2023/01/02 12:25:53;;;;;;;4.97;3.55;;;26.40;91.90;;;;;;5104187;28;20020;-55
2023/01/02 12:28:46;;;;;;;5.25;3.13;;;26.40;91.70;;;;;;5104145;28;20308;-54
2023/01/02 12:31:38;;;;;;;6.60;3.60;;;26.40;92.00;;;;;;5104133;28;20035;-56
2023/01/02 12:34:26;;;;;;;5.15;3.03;;;26.30;91.70;;;;;;5104239;28;20020;-55
2023/01/02 12:37:07;;;;;;;4.22;2.95;;;26.40;91.80;;;;;;5104164;28;20028;-52
2023/01/02 12:39:48;;;;;;;3.80;3.27;;;26.40;92.10;;;;;;5104431;28;20039;-53
2023/01/02 12:42:35;;;;;;;4.20;3.30;;;26.40;91.90;;;;;;5103921;28;20040;-54
2023/01/02 12:45:02;;;;;;;7.65;3.10;;;26.40;91.90;;;;;;5104090;28;20024;-54
2023/01/02 12:47:50;;;;;;;4.40;3.17;;;26.30;91.90;;;;;;5103980;28;20034;-55
2023/01/02 12:50:41;;;;;;;4.65;3.83;;;26.30;91.90;;;;;;5085840;28;20036;-55
2023/01/02 12:53:56;;;;;;;4.93;3.38;;;26.30;91.90;;;;;;5103563;28;20051;-55
2023/01/02 12:56:52;;;;;;;4.72;3.00;;;26.30;91.90;;;;;;5041865;28;20029;-55
2023/01/02 12:59:24;;;;;;;5.63;3.13;;;26.30;92.00;;;;;;5041515;28;20068;-55
2023/01/02 13:02:03;;;;;;;;;;;26.30;92.00;;;;;;5091085;28;20064;-56
2023/01/02 13:05:09;;;;;;;9.73;4.03;;;26.30;92.10;;;;;;5104152;28;19906;-54
2023/01/02 13:08:16;;;;;;;11.48;4.32;;;26.20;92.20;;;;;;5103165;28;20059;-54
2023/01/02 13:10:43;;;;;;;12.32;4.63;;;26.20;92.30;;;;;;5104740;28;20040;-56
2023/01/02 13:13:12;;;;;;;12.00;5.25;;;26.30;92.50;;;;;;5117751;28;20046;-55
2023/01/02 13:15:43;;;;;;;10.95;4.80;;;26.30;92.50;;;;;;5110454;28;20110;-54